Archival Weather

Bridgeport/Sikorsky

Bridgeport, Connecticut (KBDR)

Report from: Friday, February 23, 2024 10:52 PM EST
Current time: Wednesday, May 29, 2024 8:08 PM EDT

Current weather – Weather history – Daily summaries
Weather forecast

Temperature5.0°C (41.0°F)
Dew point2.2°C (36.0°F)
Winds Calm
Visibility10 mi. (16.1 km)
Clouds Sky clear
Altimeter29.44 in.Hg (997 mB)
Relative humidity82 %
Density altitude-545 ft. (-166 m)
Sea-level pressure99.7 kPa (997 mB, 29.44 in.Hg)
Remarks Fully automated report
System requires maintenance
Automated weather observing station with precipitation discriminator
Flight conditions Visual Meteorological Conditions
Raw dataKBDR 240352Z AUTO 00000KT 10SM CLR 05/02 A2944 RMK AO2 SLP970 T00500022 $
An error has occurred. This application may no longer respond until reloaded. Reload 🗙